sensor_id;sensor_type;location;lat;lon;timestamp;temperature;humidity
9816;DHT22;4947;44.526;11.360;2022-10-17T00:00:56;15.10;99.90
9816;DHT22;4947;44.526;11.360;2022-10-17T00:03:23;15.10;99.90
9816;DHT22;4947;44.526;11.360;2022-10-17T00:05:51;15.10;99.90
9816;DHT22;4947;44.526;11.360;2022-10-17T00:08:19;15.10;99.90
9816;DHT22;4947;44.526;11.360;2022-10-17T00:10:55;15.00;99.90
9816;DHT22;4947;44.526;11.360;2022-10-17T00:13:25;15.10;99.90
9816;DHT22;4947;44.526;11.360;2022-10-17T00:15:53;15.10;99.90
9816;DHT22;4947;44.526;11.360;2022-10-17T00:18:20;15.10;99.90
9816;DHT22;4947;44.526;11.360;2022-10-17T00:20:48;15.10;99.90
9816;DHT22;4947;44.526;11.360;2022-10-17T00:23:16;15.10;99.90
9816;DHT22;4947;44.526;11.360;2022-10-17T00:25:43;15.00;99.90
9816;DHT22;4947;44.526;11.360;2022-10-17T00:28:11;15.10;99.90
9816;DHT22;4947;44.526;11.360;2022-10-17T00:30:41;15.10;99.90
9816;DHT22;4947;44.526;11.360;2022-10-17T00:33:08;15.10;99.90
9816;DHT22;4947;44.526;11.360;2022-10-17T00:35:36;15.10;99.90
9816;DHT22;4947;44.526;11.360;2022-10-17T00:38:03;15.10;99.90
9816;DHT22;4947;44.526;11.360;2022-10-17T00:40:31;15.10;99.90
9816;DHT22;4947;44.526;11.360;2022-10-17T00:42:59;15.10;99.90
9816;DHT22;4947;44.526;11.360;2022-10-17T00:45:27;15.00;99.90
9816;DHT22;4947;44.526;11.360;2022-10-17T00:48:00;15.00;99.90
9816;DHT22;4947;44.526;11.360;2022-10-17T00:50:30;15.00;99.90
9816;DHT22;4947;44.526;11.360;2022-10-17T00:53:00;15.00;99.90
9816;DHT22;4947;44.526;11.360;2022-10-17T00:55:30;14.90;99.90
9816;DHT22;4947;44.526;11.360;2022-10-17T00:58:00;14.90;99.90
9816;DHT22;4947;44.526;11.360;2022-10-17T01:00:29;14.90;99.90
9816;DHT22;4947;44.526;11.360;2022-10-17T01:02:58;14.90;99.90
9816;DHT22;4947;44.526;11.360;2022-10-17T01:05:25;14.80;99.90
9816;DHT22;4947;44.526;11.360;2022-10-17T01:07:53;14.80;99.90
9816;DHT22;4947;44.526;11.360;2022-10-17T01:10:21;14.80;99.90
9816;DHT22;4947;44.526;11.360;2022-10-17T01:12:59;14.70;99.90
9816;DHT22;4947;44.526;11.360;2022-10-17T01:15:38;14.70;99.90
9816;DHT22;4947;44.526;11.360;2022-10-17T01:18:19;14.70;99.90
9816;DHT22;4947;44.526;11.360;2022-10-17T01:21:09;14.70;99.90
9816;DHT22;4947;44.526;11.360;2022-10-17T01:26:58;14.70;99.90
9816;DHT22;4947;44.526;11.360;2022-10-17T01:29:51;14.60;99.90
9816;DHT22;4947;44.526;11.360;2022-10-17T01:32:27;14.60;99.90
9816;DHT22;4947;44.526;11.360;2022-10-17T01:34:58;14.60;99.90
9816;DHT22;4947;44.526;11.360;2022-10-17T01:37:32;14.60;99.90
9816;DHT22;4947;44.526;11.360;2022-10-17T01:40:04;14.60;99.90
9816;DHT22;4947;44.526;11.360;2022-10-17T01:42:38;14.70;99.90
9816;DHT22;4947;44.526;11.360;2022-10-17T01:45:12;14.60;99.90
9816;DHT22;4947;44.526;11.360;2022-10-17T01:47:45;14.60;99.90
9816;DHT22;4947;44.526;11.360;2022-10-17T01:50:17;14.60;99.90
9816;DHT22;4947;44.526;11.360;2022-10-17T01:52:49;14.50;99.90
9816;DHT22;4947;44.526;11.360;2022-10-17T01:55:21;14.50;99.90
9816;DHT22;4947;44.526;11.360;2022-10-17T01:57:53;14.50;99.90
9816;DHT22;4947;44.526;11.360;2022-10-17T02:00:23;14.40;99.90
9816;DHT22;4947;44.526;11.360;2022-10-17T02:02:55;14.40;99.90
9816;DHT22;4947;44.526;11.360;2022-10-17T02:05:37;14.30;99.90
9816;DHT22;4947;44.526;11.360;2022-10-17T02:08:06;14.30;99.90
9816;DHT22;4947;44.526;11.360;2022-10-17T02:10:38;14.30;99.90
9816;DHT22;4947;44.526;11.360;2022-10-17T02:13:11;14.30;99.90
9816;DHT22;4947;44.526;11.360;2022-10-17T02:15:55;14.20;99.90
9816;DHT22;4947;44.526;11.360;2022-10-17T02:18:43;14.20;99.90
9816;DHT22;4947;44.526;11.360;2022-10-17T02:21:19;14.20;99.90
9816;DHT22;4947;44.526;11.360;2022-10-17T02:23:51;14.20;99.90
9816;DHT22;4947;44.526;11.360;2022-10-17T02:26:24;14.10;99.90
9816;DHT22;4947;44.526;11.360;2022-10-17T02:29:00;14.10;99.90
9816;DHT22;4947;44.526;11.360;2022-10-17T02:31:32;14.10;99.90
9816;DHT22;4947;44.526;11.360;2022-10-17T02:34:05;14.00;99.90
9816;DHT22;4947;44.526;11.360;2022-10-17T02:36:37;14.00;99.90
9816;DHT22;4947;44.526;11.360;2022-10-17T02:39:07;14.10;99.90
9816;DHT22;4947;44.526;11.360;2022-10-17T02:41:37;14.10;99.90
9816;DHT22;4947;44.526;11.360;2022-10-17T02:44:06;14.10;99.90
9816;DHT22;4947;44.526;11.360;2022-10-17T02:46:35;14.10;99.90
9816;DHT22;4947;44.526;11.360;2022-10-17T02:49:09;14.10;99.90
9816;DHT22;4947;44.526;11.360;2022-10-17T02:51:42;14.00;99.90
9816;DHT22;4947;44.526;11.360;2022-10-17T02:54:16;14.00;99.90
9816;DHT22;4947;44.526;11.360;2022-10-17T02:56:50;14.00;99.90
9816;DHT22;4947;44.526;11.360;2022-10-17T02:59:21;14.00;99.90
9816;DHT22;4947;44.526;11.360;2022-10-17T03:01:49;14.00;99.90
9816;DHT22;4947;44.526;11.360;2022-10-17T03:04:19;14.10;99.90
9816;DHT22;4947;44.526;11.360;2022-10-17T03:06:47;14.10;99.90
9816;DHT22;4947;44.526;11.360;2022-10-17T03:09:15;14.10;99.90
9816;DHT22;4947;44.526;11.360;2022-10-17T03:11:42;14.00;99.90
9816;DHT22;4947;44.526;11.360;2022-10-17T03:14:10;13.90;99.90
9816;DHT22;4947;44.526;11.360;2022-10-17T03:16:37;13.90;99.90
9816;DHT22;4947;44.526;11.360;2022-10-17T03:19:05;14.00;99.90
9816;DHT22;4947;44.526;11.360;2022-10-17T03:21:34;14.00;99.90
9816;DHT22;4947;44.526;11.360;2022-10-17T03:24:02;13.90;99.90
9816;DHT22;4947;44.526;11.360;2022-10-17T03:26:30;13.90;99.90
9816;DHT22;4947;44.526;11.360;2022-10-17T03:28:57;13.90;99.90
9816;DHT22;4947;44.526;11.360;2022-10-17T03:31:25;13.90;99.90
9816;DHT22;4947;44.526;11.360;2022-10-17T03:33:52;13.90;99.90
9816;DHT22;4947;44.526;11.360;2022-10-17T03:36:20;13.90;99.90
9816;DHT22;4947;44.526;11.360;2022-10-17T03:38:52;13.90;99.90
9816;DHT22;4947;44.526;11.360;2022-10-17T03:41:20;13.90;99.90
9816;DHT22;4947;44.526;11.360;2022-10-17T03:43:47;13.90;99.90
9816;DHT22;4947;44.526;11.360;2022-10-17T03:46:15;14.00;99.90
9816;DHT22;4947;44.526;11.360;2022-10-17T03:48:42;14.00;99.90
9816;DHT22;4947;44.526;11.360;2022-10-17T03:51:10;14.00;99.90
9816;DHT22;4947;44.526;11.360;2022-10-17T03:53:38;14.00;99.90
9816;DHT22;4947;44.526;11.360;2022-10-17T03:56:11;14.00;99.90
9816;DHT22;4947;44.526;11.360;2022-10-17T03:58:41;13.90;99.90
9816;DHT22;4947;44.526;11.360;2022-10-17T04:01:11;13.90;99.90
9816;DHT22;4947;44.526;11.360;2022-10-17T04:03:39;14.00;99.90
9816;DHT22;4947;44.526;11.360;2022-10-17T04:06:07;14.00;99.90
9816;DHT22;4947;44.526;11.360;2022-10-17T04:08:37;14.00;99.90
9816;DHT22;4947;44.526;11.360;2022-10-17T04:11:06;14.00;99.90
9816;DHT22;4947;44.526;11.360;2022-10-17T04:13:35;14.00;99.90
9816;DHT22;4947;44.526;11.360;2022-10-17T04:16:05;14.00;99.90
9816;DHT22;4947;44.526;11.360;2022-10-17T04:18:33;14.00;99.90
9816;DHT22;4947;44.526;11.360;2022-10-17T04:21:01;14.10;99.90
9816;DHT22;4947;44.526;11.360;2022-10-17T04:23:29;14.10;99.90
9816;DHT22;4947;44.526;11.360;2022-10-17T04:25:57;14.00;99.90
9816;DHT22;4947;44.526;11.360;2022-10-17T04:28:25;14.10;99.90
9816;DHT22;4947;44.526;11.360;2022-10-17T04:31:04;14.10;99.90
9816;DHT22;4947;44.526;11.360;2022-10-17T04:33:32;14.10;99.90
9816;DHT22;4947;44.526;11.360;2022-10-17T04:36:01;14.10;99.90
9816;DHT22;4947;44.526;11.360;2022-10-17T04:38:29;14.10;99.90
9816;DHT22;4947;44.526;11.360;2022-10-17T04:40:57;14.10;99.90
9816;DHT22;4947;44.526;11.360;2022-10-17T04:43:24;14.00;99.90
9816;DHT22;4947;44.526;11.360;2022-10-17T04:45:52;14.10;99.90
9816;DHT22;4947;44.526;11.360;2022-10-17T04:48:21;14.10;99.90
9816;DHT22;4947;44.526;11.360;2022-10-17T04:50:52;14.10;99.90
9816;DHT22;4947;44.526;11.360;2022-10-17T04:53:21;14.10;99.90
9816;DHT22;4947;44.526;11.360;2022-10-17T04:55:48;14.10;99.90
9816;DHT22;4947;44.526;11.360;2022-10-17T04:58:16;14.20;99.90
9816;DHT22;4947;44.526;11.360;2022-10-17T05:00:43;14.20;99.90
9816;DHT22;4947;44.526;11.360;2022-10-17T05:03:11;14.20;99.90
9816;DHT22;4947;44.526;11.360;2022-10-17T05:05:41;14.20;99.90
9816;DHT22;4947;44.526;11.360;2022-10-17T05:08:10;14.20;99.90
9816;DHT22;4947;44.526;11.360;2022-10-17T05:10:38;14.30;99.90
9816;DHT22;4947;44.526;11.360;2022-10-17T05:13:06;14.30;99.90
9816;DHT22;4947;44.526;11.360;2022-10-17T05:15:34;14.30;99.90
9816;DHT22;4947;44.526;11.360;2022-10-17T05:18:03;14.30;99.90
9816;DHT22;4947;44.526;11.360;2022-10-17T05:20:31;14.30;99.90
9816;DHT22;4947;44.526;11.360;2022-10-17T05:23:01;14.40;99.90
9816;DHT22;4947;44.526;11.360;2022-10-17T05:25:28;14.40;99.90
9816;DHT22;4947;44.526;11.360;2022-10-17T05:27:56;14.40;99.90
9816;DHT22;4947;44.526;11.360;2022-10-17T05:30:24;14.40;99.90
9816;DHT22;4947;44.526;11.360;2022-10-17T05:32:52;14.30;99.90
9816;DHT22;4947;44.526;11.360;2022-10-17T05:35:21;14.40;99.90
9816;DHT22;4947;44.526;11.360;2022-10-17T05:37:49;14.40;99.90
9816;DHT22;4947;44.526;11.360;2022-10-17T05:40:18;14.40;99.90
9816;DHT22;4947;44.526;11.360;2022-10-17T05:42:46;14.40;99.90
9816;DHT22;4947;44.526;11.360;2022-10-17T05:45:14;14.40;99.90
9816;DHT22;4947;44.526;11.360;2022-10-17T05:47:42;14.40;99.90
9816;DHT22;4947;44.526;11.360;2022-10-17T05:50:09;14.40;99.90
9816;DHT22;4947;44.526;11.360;2022-10-17T05:52:36;14.40;99.90
9816;DHT22;4947;44.526;11.360;2022-10-17T05:55:05;14.50;99.90
9816;DHT22;4947;44.526;11.360;2022-10-17T05:57:34;14.50;99.90
9816;DHT22;4947;44.526;11.360;2022-10-17T06:00:03;14.50;99.90
9816;DHT22;4947;44.526;11.360;2022-10-17T06:02:31;14.40;99.90
9816;DHT22;4947;44.526;11.360;2022-10-17T06:04:58;14.40;99.90
9816;DHT22;4947;44.526;11.360;2022-10-17T06:07:26;14.50;99.90
9816;DHT22;4947;44.526;11.360;2022-10-17T06:09:54;14.50;99.90
9816;DHT22;4947;44.526;11.360;2022-10-17T06:12:23;14.60;99.90
9816;DHT22;4947;44.526;11.360;2022-10-17T06:14:52;14.60;99.90
9816;DHT22;4947;44.526;11.360;2022-10-17T06:17:20;14.60;99.90
9816;DHT22;4947;44.526;11.360;2022-10-17T06:19:47;14.70;99.90
9816;DHT22;4947;44.526;11.360;2022-10-17T06:22:15;14.60;99.90
9816;DHT22;4947;44.526;11.360;2022-10-17T06:24:42;14.70;99.90
9816;DHT22;4947;44.526;11.360;2022-10-17T06:27:10;14.80;99.90
9816;DHT22;4947;44.526;11.360;2022-10-17T06:29:37;14.90;99.90
9816;DHT22;4947;44.526;11.360;2022-10-17T06:32:07;15.00;99.90
9816;DHT22;4947;44.526;11.360;2022-10-17T06:34:34;15.20;99.90
9816;DHT22;4947;44.526;11.360;2022-10-17T06:37:02;15.40;99.90
9816;DHT22;4947;44.526;11.360;2022-10-17T06:39:29;15.50;99.90
9816;DHT22;4947;44.526;11.360;2022-10-17T06:41:58;15.70;99.90
9816;DHT22;4947;44.526;11.360;2022-10-17T06:44:26;15.80;99.90
9816;DHT22;4947;44.526;11.360;2022-10-17T06:46:56;15.90;99.90
9816;DHT22;4947;44.526;11.360;2022-10-17T06:49:25;16.10;99.90
9816;DHT22;4947;44.526;11.360;2022-10-17T06:51:53;16.20;99.90
9816;DHT22;4947;44.526;11.360;2022-10-17T06:54:20;16.30;99.90
9816;DHT22;4947;44.526;11.360;2022-10-17T06:56:48;16.40;99.90
9816;DHT22;4947;44.526;11.360;2022-10-17T06:59:15;16.50;99.90
9816;DHT22;4947;44.526;11.360;2022-10-17T07:01:43;16.60;99.90
9816;DHT22;4947;44.526;11.360;2022-10-17T07:04:10;16.60;99.90
9816;DHT22;4947;44.526;11.360;2022-10-17T07:06:40;16.80;99.90
9816;DHT22;4947;44.526;11.360;2022-10-17T07:09:07;16.90;99.90
9816;DHT22;4947;44.526;11.360;2022-10-17T07:11:35;17.00;99.90
9816;DHT22;4947;44.526;11.360;2022-10-17T07:14:03;17.20;99.90
9816;DHT22;4947;44.526;11.360;2022-10-17T07:16:30;17.30;99.90
9816;DHT22;4947;44.526;11.360;2022-10-17T07:18:58;17.50;99.90
9816;DHT22;4947;44.526;11.360;2022-10-17T07:21:25;17.60;99.90
9816;DHT22;4947;44.526;11.360;2022-10-17T07:23:54;17.80;99.90
9816;DHT22;4947;44.526;11.360;2022-10-17T07:26:22;18.00;99.90
9816;DHT22;4947;44.526;11.360;2022-10-17T07:28:51;18.10;99.90
9816;DHT22;4947;44.526;11.360;2022-10-17T07:31:20;18.30;99.90
9816;DHT22;4947;44.526;11.360;2022-10-17T07:33:48;18.30;99.90
9816;DHT22;4947;44.526;11.360;2022-10-17T07:36:17;18.40;99.90
9816;DHT22;4947;44.526;11.360;2022-10-17T07:38:44;18.70;99.90
9816;DHT22;4947;44.526;11.360;2022-10-17T07:41:13;18.80;99.90
9816;DHT22;4947;44.526;11.360;2022-10-17T07:43:41;18.90;99.90
9816;DHT22;4947;44.526;11.360;2022-10-17T07:46:08;19.00;99.90
9816;DHT22;4947;44.526;11.360;2022-10-17T07:48:37;19.10;99.90
9816;DHT22;4947;44.526;11.360;2022-10-17T07:51:07;19.30;99.90
9816;DHT22;4947;44.526;11.360;2022-10-17T07:53:35;19.40;99.90
9816;DHT22;4947;44.526;11.360;2022-10-17T07:56:04;19.30;99.90
9816;DHT22;4947;44.526;11.360;2022-10-17T07:58:35;19.40;99.90
9816;DHT22;4947;44.526;11.360;2022-10-17T08:01:04;19.50;99.90
9816;DHT22;4947;44.526;11.360;2022-10-17T08:03:32;19.70;99.90
9816;DHT22;4947;44.526;11.360;2022-10-17T08:06:00;19.80;99.90
9816;DHT22;4947;44.526;11.360;2022-10-17T08:08:28;19.80;99.90
9816;DHT22;4947;44.526;11.360;2022-10-17T08:11:01;19.80;99.90
9816;DHT22;4947;44.526;11.360;2022-10-17T08:13:29;20.10;99.90
9816;DHT22;4947;44.526;11.360;2022-10-17T08:15:59;20.50;99.90
9816;DHT22;4947;44.526;11.360;2022-10-17T08:18:27;20.70;99.60
9816;DHT22;4947;44.526;11.360;2022-10-17T08:20:58;21.10;98.70
9816;DHT22;4947;44.526;11.360;2022-10-17T08:23:26;21.70;95.60
9816;DHT22;4947;44.526;11.360;2022-10-17T08:25:53;22.40;94.60
9816;DHT22;4947;44.526;11.360;2022-10-17T08:28:21;23.10;92.20
9816;DHT22;4947;44.526;11.360;2022-10-17T08:30:48;23.40;90.30
9816;DHT22;4947;44.526;11.360;2022-10-17T08:33:17;23.60;89.60
9816;DHT22;4947;44.526;11.360;2022-10-17T08:35:45;24.00;87.00
9816;DHT22;4947;44.526;11.360;2022-10-17T08:38:13;23.80;87.40
9816;DHT22;4947;44.526;11.360;2022-10-17T08:40:40;24.60;85.20
9816;DHT22;4947;44.526;11.360;2022-10-17T08:43:26;25.10;81.70
9816;DHT22;4947;44.526;11.360;2022-10-17T08:45:57;25.30;78.70
9816;DHT22;4947;44.526;11.360;2022-10-17T08:48:32;25.60;79.10
9816;DHT22;4947;44.526;11.360;2022-10-17T08:51:04;25.70;79.10
9816;DHT22;4947;44.526;11.360;2022-10-17T08:53:35;25.70;78.40
9816;DHT22;4947;44.526;11.360;2022-10-17T08:56:12;26.20;75.80
9816;DHT22;4947;44.526;11.360;2022-10-17T08:58:42;25.80;76.90
9816;DHT22;4947;44.526;11.360;2022-10-17T09:01:20;25.60;78.00
9816;DHT22;4947;44.526;11.360;2022-10-17T09:04:17;26.20;76.50
9816;DHT22;4947;44.526;11.360;2022-10-17T09:06:53;26.50;74.90
9816;DHT22;4947;44.526;11.360;2022-10-17T09:09:32;26.80;74.10
9816;DHT22;4947;44.526;11.360;2022-10-17T09:12:13;26.60;72.90
9816;DHT22;4947;44.526;11.360;2022-10-17T09:15:03;26.60;73.30
9816;DHT22;4947;44.526;11.360;2022-10-17T09:17:37;26.90;72.40
9816;DHT22;4947;44.526;11.360;2022-10-17T09:20:13;26.70;72.70
9816;DHT22;4947;44.526;11.360;2022-10-17T09:22:46;26.40;73.40
9816;DHT22;4947;44.526;11.360;2022-10-17T09:25:17;25.70;76.40
9816;DHT22;4947;44.526;11.360;2022-10-17T09:27:48;25.20;78.80
9816;DHT22;4947;44.526;11.360;2022-10-17T09:30:27;24.70;82.30
9816;DHT22;4947;44.526;11.360;2022-10-17T09:32:57;24.50;84.10
9816;DHT22;4947;44.526;11.360;2022-10-17T09:35:27;24.20;84.70
9816;DHT22;4947;44.526;11.360;2022-10-17T09:37:54;24.00;87.30
9816;DHT22;4947;44.526;11.360;2022-10-17T09:40:25;23.70;88.70
9816;DHT22;4947;44.526;11.360;2022-10-17T09:42:54;23.40;90.00
9816;DHT22;4947;44.526;11.360;2022-10-17T09:45:23;23.30;90.60
9816;DHT22;4947;44.526;11.360;2022-10-17T09:47:59;23.00;91.20
9816;DHT22;4947;44.526;11.360;2022-10-17T09:50:32;22.60;93.50
9816;DHT22;4947;44.526;11.360;2022-10-17T09:53:02;22.50;93.20
9816;DHT22;4947;44.526;11.360;2022-10-17T09:55:37;22.30;94.70
9816;DHT22;4947;44.526;11.360;2022-10-17T09:58:07;22.30;94.90
9816;DHT22;4947;44.526;11.360;2022-10-17T10:00:37;22.50;94.00
9816;DHT22;4947;44.526;11.360;2022-10-17T10:03:13;22.30;95.10
9816;DHT22;4947;44.526;11.360;2022-10-17T10:05:57;22.20;94.90
9816;DHT22;4947;44.526;11.360;2022-10-17T10:08:27;22.10;96.40
9816;DHT22;4947;44.526;11.360;2022-10-17T10:11:00;22.10;96.20
9816;DHT22;4947;44.526;11.360;2022-10-17T10:13:30;22.10;96.00
9816;DHT22;4947;44.526;11.360;2022-10-17T10:16:20;22.10;96.20
9816;DHT22;4947;44.526;11.360;2022-10-17T10:18:49;22.20;95.60
9816;DHT22;4947;44.526;11.360;2022-10-17T10:21:20;22.10;95.40
9816;DHT22;4947;44.526;11.360;2022-10-17T10:24:04;22.30;97.00
9816;DHT22;4947;44.526;11.360;2022-10-17T10:26:34;22.20;96.90
9816;DHT22;4947;44.526;11.360;2022-10-17T10:29:05;22.40;95.50
9816;DHT22;4947;44.526;11.360;2022-10-17T10:31:36;22.50;95.90
9816;DHT22;4947;44.526;11.360;2022-10-17T10:34:26;22.50;96.00
9816;DHT22;4947;44.526;11.360;2022-10-17T10:37:01;22.60;96.40
9816;DHT22;4947;44.526;11.360;2022-10-17T10:39:40;22.60;95.40
9816;DHT22;4947;44.526;11.360;2022-10-17T10:42:17;22.50;94.90
9816;DHT22;4947;44.526;11.360;2022-10-17T10:44:47;22.40;95.70
9816;DHT22;4947;44.526;11.360;2022-10-17T10:47:19;22.50;95.90
9816;DHT22;4947;44.526;11.360;2022-10-17T10:49:47;22.60;95.30
9816;DHT22;4947;44.526;11.360;2022-10-17T10:52:29;22.60;95.60
9816;DHT22;4947;44.526;11.360;2022-10-17T10:55:06;22.60;95.10
9816;DHT22;4947;44.526;11.360;2022-10-17T10:57:43;22.70;94.30
9816;DHT22;4947;44.526;11.360;2022-10-17T11:00:15;22.60;95.10
9816;DHT22;4947;44.526;11.360;2022-10-17T11:02:50;22.70;94.50
9816;DHT22;4947;44.526;11.360;2022-10-17T11:05:33;22.80;94.50
9816;DHT22;4947;44.526;11.360;2022-10-17T11:08:11;22.80;94.40
9816;DHT22;4947;44.526;11.360;2022-10-17T11:10:52;22.80;94.80
9816;DHT22;4947;44.526;11.360;2022-10-17T11:13:25;22.70;94.60
9816;DHT22;4947;44.526;11.360;2022-10-17T11:15:56;22.70;95.60
9816;DHT22;4947;44.526;11.360;2022-10-17T11:18:32;22.80;95.20
9816;DHT22;4947;44.526;11.360;2022-10-17T11:21:04;22.70;94.20
9816;DHT22;4947;44.526;11.360;2022-10-17T11:23:38;22.70;94.40
9816;DHT22;4947;44.526;11.360;2022-10-17T11:26:12;22.70;94.20
9816;DHT22;4947;44.526;11.360;2022-10-17T11:28:42;22.80;93.00
9816;DHT22;4947;44.526;11.360;2022-10-17T11:31:12;22.70;93.50
9816;DHT22;4947;44.526;11.360;2022-10-17T11:33:46;22.80;93.20
9816;DHT22;4947;44.526;11.360;2022-10-17T11:36:18;22.80;93.50
9816;DHT22;4947;44.526;11.360;2022-10-17T11:38:50;22.80;94.10
9816;DHT22;4947;44.526;11.360;2022-10-17T11:41:23;22.80;94.00
9816;DHT22;4947;44.526;11.360;2022-10-17T11:43:56;22.70;94.20
9816;DHT22;4947;44.526;11.360;2022-10-17T11:46:26;22.80;95.00
9816;DHT22;4947;44.526;11.360;2022-10-17T11:49:08;22.80;93.90
9816;DHT22;4947;44.526;11.360;2022-10-17T11:51:42;22.90;93.70
9816;DHT22;4947;44.526;11.360;2022-10-17T11:54:15;22.90;93.40
9816;DHT22;4947;44.526;11.360;2022-10-17T11:56:49;22.90;93.20
9816;DHT22;4947;44.526;11.360;2022-10-17T11:59:51;22.90;92.50
9816;DHT22;4947;44.526;11.360;2022-10-17T12:02:36;23.00;92.50
9816;DHT22;4947;44.526;11.360;2022-10-17T12:05:18;23.00;92.50
9816;DHT22;4947;44.526;11.360;2022-10-17T12:07:51;23.10;92.60
9816;DHT22;4947;44.526;11.360;2022-10-17T12:10:32;23.10;92.40
9816;DHT22;4947;44.526;11.360;2022-10-17T12:16:35;23.20;91.60
9816;DHT22;4947;44.526;11.360;2022-10-17T12:19:27;23.10;92.70
9816;DHT22;4947;44.526;11.360;2022-10-17T12:21:59;23.10;93.10
9816;DHT22;4947;44.526;11.360;2022-10-17T12:24:38;23.20;92.20
9816;DHT22;4947;44.526;11.360;2022-10-17T12:27:36;23.20;91.90
9816;DHT22;4947;44.526;11.360;2022-10-17T12:30:28;23.20;91.10
9816;DHT22;4947;44.526;11.360;2022-10-17T12:33:03;23.20;90.60
9816;DHT22;4947;44.526;11.360;2022-10-17T12:35:33;23.20;91.70
9816;DHT22;4947;44.526;11.360;2022-10-17T12:38:26;23.20;91.40
9816;DHT22;4947;44.526;11.360;2022-10-17T12:41:01;23.20;91.50
9816;DHT22;4947;44.526;11.360;2022-10-17T12:43:46;23.30;91.00
9816;DHT22;4947;44.526;11.360;2022-10-17T12:54:59;23.40;90.10
9816;DHT22;4947;44.526;11.360;2022-10-17T12:57:32;23.40;89.00
9816;DHT22;4947;44.526;11.360;2022-10-17T13:00:14;23.50;87.50
9816;DHT22;4947;44.526;11.360;2022-10-17T13:02:43;23.40;87.50
9816;DHT22;4947;44.526;11.360;2022-10-17T13:05:15;23.40;87.20
9816;DHT22;4947;44.526;11.360;2022-10-17T13:07:44;23.50;87.50
9816;DHT22;4947;44.526;11.360;2022-10-17T13:10:19;23.50;86.70
9816;DHT22;4947;44.526;11.360;2022-10-17T13:12:49;23.40;87.90
9816;DHT22;4947;44.526;11.360;2022-10-17T13:15:19;23.30;87.00
9816;DHT22;4947;44.526;11.360;2022-10-17T13:17:56;23.30;88.10
9816;DHT22;4947;44.526;11.360;2022-10-17T13:20:25;23.40;87.60
9816;DHT22;4947;44.526;11.360;2022-10-17T13:22:53;23.40;86.60
9816;DHT22;4947;44.526;11.360;2022-10-17T13:25:23;23.50;86.70
9816;DHT22;4947;44.526;11.360;2022-10-17T13:28:01;23.50;86.40
9816;DHT22;4947;44.526;11.360;2022-10-17T13:30:33;23.60;84.70
9816;DHT22;4947;44.526;11.360;2022-10-17T13:33:01;23.50;84.90
9816;DHT22;4947;44.526;11.360;2022-10-17T13:35:30;23.60;85.50
9816;DHT22;4947;44.526;11.360;2022-10-17T13:38:01;23.60;85.00
9816;DHT22;4947;44.526;11.360;2022-10-17T13:40:38;23.70;85.00
9816;DHT22;4947;44.526;11.360;2022-10-17T13:43:13;23.60;82.20
9816;DHT22;4947;44.526;11.360;2022-10-17T13:45:46;23.70;81.50
9816;DHT22;4947;44.526;11.360;2022-10-17T13:48:19;23.70;82.80
9816;DHT22;4947;44.526;11.360;2022-10-17T13:50:49;23.70;83.00
9816;DHT22;4947;44.526;11.360;2022-10-17T13:53:21;23.70;83.40
9816;DHT22;4947;44.526;11.360;2022-10-17T13:56:01;23.60;82.80
9816;DHT22;4947;44.526;11.360;2022-10-17T13:58:31;23.50;84.10
9816;DHT22;4947;44.526;11.360;2022-10-17T14:01:07;23.70;83.60
9816;DHT22;4947;44.526;11.360;2022-10-17T14:03:35;23.60;83.90
9816;DHT22;4947;44.526;11.360;2022-10-17T14:06:12;23.70;84.30
9816;DHT22;4947;44.526;11.360;2022-10-17T14:08:48;23.70;83.50
9816;DHT22;4947;44.526;11.360;2022-10-17T14:11:22;23.60;84.40
9816;DHT22;4947;44.526;11.360;2022-10-17T14:13:51;23.60;83.10
9816;DHT22;4947;44.526;11.360;2022-10-17T14:16:21;23.60;82.20
9816;DHT22;4947;44.526;11.360;2022-10-17T14:18:51;23.60;83.50
9816;DHT22;4947;44.526;11.360;2022-10-17T14:21:21;23.60;85.50
9816;DHT22;4947;44.526;11.360;2022-10-17T14:23:50;23.60;84.30
9816;DHT22;4947;44.526;11.360;2022-10-17T14:26:19;23.50;81.90
9816;DHT22;4947;44.526;11.360;2022-10-17T14:28:49;23.50;81.30
9816;DHT22;4947;44.526;11.360;2022-10-17T14:31:29;23.60;81.50
9816;DHT22;4947;44.526;11.360;2022-10-17T14:33:58;23.60;82.10
9816;DHT22;4947;44.526;11.360;2022-10-17T14:36:35;23.70;81.30
9816;DHT22;4947;44.526;11.360;2022-10-17T14:39:05;23.60;82.30
9816;DHT22;4947;44.526;11.360;2022-10-17T14:41:34;23.60;82.50
9816;DHT22;4947;44.526;11.360;2022-10-17T14:44:04;23.50;83.40
9816;DHT22;4947;44.526;11.360;2022-10-17T14:46:35;23.40;85.50
9816;DHT22;4947;44.526;11.360;2022-10-17T14:49:05;23.40;87.30
9816;DHT22;4947;44.526;11.360;2022-10-17T14:51:33;23.40;85.50
9816;DHT22;4947;44.526;11.360;2022-10-17T14:54:04;23.30;85.30
9816;DHT22;4947;44.526;11.360;2022-10-17T14:56:37;23.40;84.30
9816;DHT22;4947;44.526;11.360;2022-10-17T14:59:05;23.50;83.10
9816;DHT22;4947;44.526;11.360;2022-10-17T15:01:36;23.50;83.20
9816;DHT22;4947;44.526;11.360;2022-10-17T15:04:04;23.60;82.10
9816;DHT22;4947;44.526;11.360;2022-10-17T15:06:35;23.60;82.80
9816;DHT22;4947;44.526;11.360;2022-10-17T15:09:03;23.50;82.10
9816;DHT22;4947;44.526;11.360;2022-10-17T15:11:31;23.50;82.20
9816;DHT22;4947;44.526;11.360;2022-10-17T15:13:58;23.40;82.30
9816;DHT22;4947;44.526;11.360;2022-10-17T15:16:29;23.40;83.00
9816;DHT22;4947;44.526;11.360;2022-10-17T15:18:59;23.30;84.40
9816;DHT22;4947;44.526;11.360;2022-10-17T15:21:28;23.30;84.70
9816;DHT22;4947;44.526;11.360;2022-10-17T15:23:55;23.20;86.80
9816;DHT22;4947;44.526;11.360;2022-10-17T15:26:25;23.20;88.40
9816;DHT22;4947;44.526;11.360;2022-10-17T15:28:54;23.10;89.70
9816;DHT22;4947;44.526;11.360;2022-10-17T15:31:23;23.00;90.00
9816;DHT22;4947;44.526;11.360;2022-10-17T15:33:51;22.90;90.40
9816;DHT22;4947;44.526;11.360;2022-10-17T15:36:22;22.90;90.90
9816;DHT22;4947;44.526;11.360;2022-10-17T15:38:50;22.80;91.60
9816;DHT22;4947;44.526;11.360;2022-10-17T15:41:18;22.70;92.00
9816;DHT22;4947;44.526;11.360;2022-10-17T15:43:46;22.60;92.20
9816;DHT22;4947;44.526;11.360;2022-10-17T15:46:16;22.50;92.80
9816;DHT22;4947;44.526;11.360;2022-10-17T15:48:44;22.50;92.90
9816;DHT22;4947;44.526;11.360;2022-10-17T15:51:12;22.40;92.50
9816;DHT22;4947;44.526;11.360;2022-10-17T15:53:41;22.40;91.90
9816;DHT22;4947;44.526;11.360;2022-10-17T15:56:19;22.40;91.50
9816;DHT22;4947;44.526;11.360;2022-10-17T15:58:48;22.40;91.80
9816;DHT22;4947;44.526;11.360;2022-10-17T16:01:20;22.30;92.20
9816;DHT22;4947;44.526;11.360;2022-10-17T16:03:48;22.20;92.40
9816;DHT22;4947;44.526;11.360;2022-10-17T16:06:17;22.20;93.00
9816;DHT22;4947;44.526;11.360;2022-10-17T16:08:46;22.10;93.60
9816;DHT22;4947;44.526;11.360;2022-10-17T16:11:17;22.00;93.60
9816;DHT22;4947;44.526;11.360;2022-10-17T16:13:50;21.90;93.90
9816;DHT22;4947;44.526;11.360;2022-10-17T16:16:18;21.80;93.80
9816;DHT22;4947;44.526;11.360;2022-10-17T16:18:46;21.80;93.80
9816;DHT22;4947;44.526;11.360;2022-10-17T16:21:15;21.70;94.60
9816;DHT22;4947;44.526;11.360;2022-10-17T16:23:45;21.50;95.00
9816;DHT22;4947;44.526;11.360;2022-10-17T16:26:13;21.50;95.30